Time;durP1;ratioP1;P1;durP2;ratioP2;P2;SDS_P1;SDS_P2;PMS_P1;PMS_P2;Temp;Humidity;BMP_temperature;BMP_pressure;BME280_temperature;BME280_humidity;BME280_pressure;Samples;Min_cycle;Max_cycle;Signal;HPM_P1;HPM_P2
2023/10/14 00:00:46;;;;;;;2.72;0.40;;;;;;;;;;5054481;28;20028;-81
2023/10/14 00:03:27;;;;;;;3.80;0.52;;;;;;;;;;5051595;28;20400;-82
2023/10/14 00:05:54;;;;;;;2.90;0.40;;;;;;;;;;5064389;28;20017;-82
2023/10/14 00:08:20;;;;;;;4.65;0.63;;;;;;;;;;5050975;28;20082;-82
2023/10/14 00:10:46;;;;;;;1.67;0.40;;;;;;;;;;5065366;28;20555;-82
2023/10/14 00:13:16;;;;;;;2.20;0.40;;;;;;;;;;5073998;28;20158;-82
2023/10/14 00:15:41;;;;;;;2.88;0.52;;;;;;;;;;5075004;28;20069;-82
2023/10/14 00:18:09;;;;;;;1.42;0.60;;;;;;;;;;5051576;28;20115;-82
2023/10/14 00:20:35;;;;;;;2.28;0.40;;;;;;;;;;5069450;28;20093;-79
2023/10/14 00:23:02;;;;;;;2.15;0.30;;;;;;;;;;5054150;28;20113;-79
2023/10/14 00:25:28;;;;;;;0.82;0.20;;;;;;;;;;5053559;28;20073;-79
2023/10/14 00:27:53;;;;;;;1.80;0.30;;;;;;;;;;5054245;28;20115;-78
2023/10/14 00:30:19;;;;;;;0.93;0.22;;;;;;;;;;5070446;28;20032;-78
2023/10/14 00:32:45;;;;;;;2.55;0.25;;;;;;;;;;5070759;28;20041;-79
2023/10/14 00:35:18;;;;;;;1.42;0.30;;;;;;;;;;5054862;28;20029;-79
2023/10/14 00:37:43;;;;;;;1.17;0.20;;;;;;;;;;5062247;28;20028;-78
2023/10/14 00:40:12;;;;;;;1.45;0.30;;;;;;;;;;5061115;28;20029;-78
2023/10/14 00:42:41;;;;;;;3.45;0.40;;;;;;;;;;5051146;28;20082;-81
2023/10/14 00:45:09;;;;;;;1.00;0.40;;;;;;;;;;5052470;28;20044;-81
2023/10/14 00:47:43;;;;;;;2.47;0.45;;;;;;;;;;5068901;28;20032;-82
2023/10/14 00:52:55;;;;;;;2.70;0.50;;;;;;;;;;5066096;28;20388;-81
2023/10/14 00:55:26;;;;;;;1.27;0.40;;;;;;;;;;5067049;28;20024;-81
2023/10/14 00:57:54;;;;;;;2.70;0.57;;;;;;;;;;5073592;28;20652;-82
2023/10/14 01:00:26;;;;;;;2.33;0.50;;;;;;;;;;5062697;28;20461;-81
2023/10/14 01:02:52;;;;;;;3.63;0.70;;;;;;;;;;5063762;28;20473;-81
2023/10/14 01:05:20;;;;;;;3.13;0.80;;;;;;;;;;5059408;28;20028;-81
2023/10/14 01:07:47;;;;;;;3.60;0.70;;;;;;;;;;5069176;28;20024;-81
2023/10/14 01:10:23;;;;;;;4.68;0.95;;;;;;;;;;5047663;28;20028;-82
2023/10/14 01:12:54;;;;;;;3.38;0.70;;;;;;;;;;5048636;28;20115;-82
2023/10/14 01:15:20;;;;;;;3.83;0.80;;;;;;;;;;5053465;28;20518;-81
2023/10/14 01:17:46;;;;;;;4.22;0.80;;;;;;;;;;5055724;28;20032;-81
2023/10/14 01:22:41;;;;;;;3.28;0.70;;;;;;;;;;5065985;28;20481;-81
2023/10/14 01:25:12;;;;;;;3.90;1.00;;;;;;;;;;5068920;28;20047;-81
2023/10/14 01:27:38;;;;;;;4.22;0.80;;;;;;;;;;5050745;28;20438;-82
2023/10/14 01:30:14;;;;;;;3.63;0.70;;;;;;;;;;5072685;28;20024;-82
2023/10/14 01:32:48;;;;;;;7.43;1.08;;;;;;;;;;5067497;28;20441;-85
2023/10/14 01:37:54;;;;;;;5.60;1.02;;;;;;;;;;5064706;28;20484;-85
2023/10/14 01:42:58;;;;;;;6.78;1.20;;;;;;;;;;5069372;28;20032;-85
2023/10/14 01:45:27;;;;;;;5.15;1.20;;;;;;;;;;5072308;28;20020;-84
2023/10/14 01:50:33;;;;;;;4.53;1.00;;;;;;;;;;5074866;28;20051;-84
2023/10/14 01:53:03;;;;;;;5.40;1.02;;;;;;;;;;5049340;28;20387;-85
2023/10/14 01:55:29;;;;;;;5.22;1.30;;;;;;;;;;5063389;28;20063;-85
2023/10/14 01:57:57;;;;;;;6.75;1.42;;;;;;;;;;5071671;28;20447;-85
2023/10/14 02:00:25;;;;;;;5.80;1.00;;;;;;;;;;5043899;28;20071;-85
2023/10/14 02:03:01;;;;;;;6.07;1.40;;;;;;;;;;5063403;28;20461;-85
2023/10/14 02:05:27;;;;;;;7.28;1.38;;;;;;;;;;5075748;28;20584;-86
2023/10/14 02:07:52;;;;;;;9.00;1.30;;;;;;;;;;5063496;28;20041;-86
2023/10/14 02:10:18;;;;;;;5.80;0.98;;;;;;;;;;5077076;28;20064;-84
2023/10/14 02:12:43;;;;;;;8.10;1.65;;;;;;;;;;5069762;28;20028;-85
2023/10/14 02:15:09;;;;;;;5.63;1.15;;;;;;;;;;5068060;28;20025;-85
2023/10/14 02:17:34;;;;;;;6.95;1.30;;;;;;;;;;5072403;28;20070;-85
2023/10/14 02:20:19;;;;;;;8.15;1.15;;;;;;;;;;5066773;28;20443;-85
2023/10/14 02:22:44;;;;;;;8.52;1.40;;;;;;;;;;5052466;28;20392;-85
2023/10/14 02:25:15;;;;;;;7.03;1.45;;;;;;;;;;5061351;28;20017;-85
2023/10/14 02:27:42;;;;;;;8.70;1.10;;;;;;;;;;5048450;28;20063;-85
2023/10/14 02:30:09;;;;;;;4.55;0.90;;;;;;;;;;5053234;28;20162;-85
2023/10/14 02:32:35;;;;;;;7.15;1.20;;;;;;;;;;5061046;28;20031;-84
2023/10/14 02:35:00;;;;;;;5.88;1.08;;;;;;;;;;5059015;28;20025;-85
2023/10/14 02:37:25;;;;;;;8.85;1.30;;;;;;;;;;5050503;28;20025;-81
2023/10/14 02:39:51;;;;;;;6.13;1.17;;;;;;;;;;5054818;28;20412;-81
2023/10/14 02:42:17;;;;;;;7.68;1.60;;;;;;;;;;5059785;28;20029;-79
2023/10/14 02:44:54;;;;;;;7.63;1.40;;;;;;;;;;5074750;28;20024;-79
2023/10/14 02:47:20;;;;;;;8.85;1.65;;;;;;;;;;5072505;28;20029;-79
2023/10/14 02:49:53;;;;;;;6.35;1.23;;;;;;;;;;5071621;28;20106;-79
2023/10/14 02:52:19;;;;;;;10.25;1.45;;;;;;;;;;5071573;28;20016;-81
2023/10/14 02:54:54;;;;;;;11.98;1.63;;;;;;;;;;5066976;28;20021;-81
2023/10/14 02:59:48;;;;;;;8.43;1.40;;;;;;;;;;5074347;28;20034;-82
2023/10/14 03:02:18;;;;;;;7.43;1.23;;;;;;;;;;5054038;28;20024;-81
2023/10/14 03:07:28;;;;;;;6.28;1.20;;;;;;;;;;5074209;28;20114;-81
2023/10/14 03:12:48;;;;;;;7.00;1.25;;;;;;;;;;5064852;28;20385;-81
2023/10/14 03:15:20;;;;;;;7.68;1.23;;;;;;;;;;5073120;28;20166;-81
2023/10/14 03:21:00;;;;;;;9.13;1.67;;;;;;;;;;5068513;28;20500;-85
2023/10/14 03:23:18;;;;;;;4.97;1.20;;;;;;;;;;5066811;28;20059;-84
2023/10/14 03:25:45;;;;;;;10.30;1.42;;;;;;;;;;5073747;28;20506;-85
2023/10/14 03:30:37;;;;;;;6.63;1.35;;;;;;;;;;5066964;28;20020;-85
2023/10/14 03:33:10;;;;;;;7.40;2.30;;;;;;;;;;5070488;28;20107;-85
2023/10/14 03:35:36;;;;;;;;;;;;;;;;;;5065690;28;20071;-85
2023/10/14 03:38:14;;;;;;;4.93;1.60;;;;;;;;;;5055884;28;20292;-85
2023/10/14 03:43:18;;;;;;;7.38;1.40;;;;;;;;;;5071531;28;20043;-85
2023/10/14 03:46:30;;;;;;;9.95;1.33;;;;;;;;;;5067077;28;20025;-85
2023/10/14 03:48:45;;;;;;;8.52;1.40;;;;;;;;;;5063793;28;20106;-85
2023/10/14 03:51:12;;;;;;;6.28;1.35;;;;;;;;;;5047903;28;20060;-85
2023/10/14 03:53:38;;;;;;;8.07;1.48;;;;;;;;;;5052260;28;20032;-84
2023/10/14 03:56:03;;;;;;;9.27;1.40;;;;;;;;;;5070840;28;20411;-84
2023/10/14 03:58:37;;;;;;;8.23;1.73;;;;;;;;;;5050015;28;20043;-85
2023/10/14 04:01:03;;;;;;;9.32;1.30;;;;;;;;;;5068554;28;20028;-80
2023/10/14 04:03:40;;;;;;;7.60;1.23;;;;;;;;;;5069050;28;20400;-81
2023/10/14 04:06:11;;;;;;;7.15;1.40;;;;;;;;;;5052800;28;20485;-80
2023/10/14 04:08:46;;;;;;;7.90;1.42;;;;;;;;;;5055769;28;20043;-80
2023/10/14 04:11:15;;;;;;;7.20;1.40;;;;;;;;;;5071467;28;20031;-80
2023/10/14 04:13:43;;;;;;;10.02;1.35;;;;;;;;;;5071063;28;20127;-80
2023/10/14 04:16:12;;;;;;;9.50;1.20;;;;;;;;;;5049230;28;20510;-81
2023/10/14 04:18:37;;;;;;;7.93;1.50;;;;;;;;;;5053385;28;20472;-81
2023/10/14 04:26:34;;;;;;;9.18;1.40;;;;;;;;;;5031025;28;20067;-80
2023/10/14 04:29:02;;;;;;;11.65;1.42;;;;;;;;;;5069166;28;20028;-80
2023/10/14 04:31:38;;;;;;;6.53;1.17;;;;;;;;;;5068683;28;20534;-80
2023/10/14 04:34:08;;;;;;;5.32;0.90;;;;;;;;;;5052785;28;20483;-80
2023/10/14 04:36:38;;;;;;;11.57;1.65;;;;;;;;;;5069651;28;20395;-80
2023/10/14 04:39:11;;;;;;;6.93;1.20;;;;;;;;;;5068776;28;20097;-80
2023/10/14 04:41:45;;;;;;;;;;;;;;;;;;5051491;28;20102;-80
2023/10/14 04:44:11;;;;;;;7.85;1.63;;;;;;;;;;5067292;28;19943;-80
2023/10/14 04:46:54;;;;;;;7.03;1.17;;;;;;;;;;5071883;28;20039;-80
2023/10/14 04:49:29;;;;;;;5.23;1.20;;;;;;;;;;5057388;28;20029;-80
2023/10/14 04:51:58;;;;;;;7.15;1.13;;;;;;;;;;5055676;28;20031;-80
2023/10/14 04:54:25;;;;;;;7.13;1.17;;;;;;;;;;5049716;28;20033;-80
2023/10/14 04:56:51;;;;;;;10.40;1.27;;;;;;;;;;5065218;28;20024;-80
2023/10/14 04:59:21;;;;;;;6.32;1.13;;;;;;;;;;5047776;28;20090;-80
2023/10/14 05:01:48;;;;;;;8.18;1.40;;;;;;;;;;5050056;28;20392;-81
2023/10/14 05:04:13;;;;;;;6.78;1.35;;;;;;;;;;5066937;28;20025;-80
2023/10/14 05:06:41;;;;;;;9.43;1.75;;;;;;;;;;5069433;28;20035;-80
2023/10/14 05:09:25;;;;;;;6.22;1.63;;;;;;;;;;5065989;28;20028;-80
2023/10/14 05:11:51;;;;;;;7.68;1.00;;;;;;;;;;5051436;28;20017;-78
2023/10/14 05:14:17;;;;;;;7.70;1.20;;;;;;;;;;5050537;28;20484;-78
2023/10/14 05:19:23;;;;;;;8.93;1.88;;;;;;;;;;5069474;28;20450;-78
2023/10/14 05:21:56;;;;;;;7.68;1.45;;;;;;;;;;5048412;28;20383;-77
2023/10/14 05:24:23;;;;;;;6.70;1.38;;;;;;;;;;5044847;28;20035;-78
2023/10/14 05:26:58;;;;;;;7.43;1.45;;;;;;;;;;5048305;28;20506;-79
2023/10/14 05:29:24;;;;;;;10.27;2.28;;;;;;;;;;5067328;28;20027;-78
2023/10/14 05:31:50;;;;;;;4.30;1.05;;;;;;;;;;5067432;28;20032;-78
2023/10/14 05:34:26;;;;;;;6.93;1.48;;;;;;;;;;5051992;28;20048;-78
2023/10/14 05:36:58;;;;;;;9.05;1.58;;;;;;;;;;5068193;28;20040;-78
2023/10/14 05:39:37;;;;;;;7.28;1.25;;;;;;;;;;5066492;28;20036;-78
2023/10/14 05:42:13;;;;;;;8.73;1.30;;;;;;;;;;5064689;28;20040;-81
2023/10/14 05:44:46;;;;;;;12.40;1.63;;;;;;;;;;5057639;28;20075;-81
2023/10/14 05:47:11;;;;;;;5.65;1.38;;;;;;;;;;5065773;28;20149;-81
2023/10/14 05:49:37;;;;;;;10.18;1.75;;;;;;;;;;5049217;28;20131;-81
2023/10/14 05:52:03;;;;;;;9.15;1.30;;;;;;;;;;5067376;28;20028;-81
2023/10/14 05:54:28;;;;;;;8.93;2.17;;;;;;;;;;5066741;28;20035;-80
2023/10/14 05:56:54;;;;;;;7.43;1.60;;;;;;;;;;5046947;28;20027;-80
2023/10/14 05:59:19;;;;;;;6.70;1.48;;;;;;;;;;5050333;28;20020;-80
2023/10/14 06:01:46;;;;;;;8.23;1.25;;;;;;;;;;5063016;28;20043;-80
2023/10/14 06:04:13;;;;;;;9.10;1.58;;;;;;;;;;5066223;28;20028;-79
2023/10/14 06:06:40;;;;;;;10.68;1.55;;;;;;;;;;5043721;28;20021;-80
2023/10/14 06:09:07;;;;;;;6.65;1.67;;;;;;;;;;5065284;28;20035;-81
2023/10/14 06:11:32;;;;;;;8.20;1.45;;;;;;;;;;5061797;28;20404;-79
2023/10/14 06:13:58;;;;;;;9.10;1.30;;;;;;;;;;5068355;28;20024;-78
2023/10/14 06:16:25;;;;;;;6.68;1.38;;;;;;;;;;5067403;28;21819;-79
2023/10/14 06:18:51;;;;;;;6.53;1.27;;;;;;;;;;5049631;28;20028;-79
2023/10/14 06:21:16;;;;;;;6.60;1.52;;;;;;;;;;5051851;28;20033;-84
2023/10/14 06:23:47;;;;;;;7.55;1.63;;;;;;;;;;5070076;28;20028;-84
2023/10/14 06:26:16;;;;;;;6.00;1.30;;;;;;;;;;5053219;28;20062;-84
2023/10/14 06:28:42;;;;;;;6.38;1.52;;;;;;;;;;5068839;28;20468;-83
2023/10/14 06:31:07;;;;;;;5.03;1.60;;;;;;;;;;5068780;28;20032;-84
2023/10/14 06:33:33;;;;;;;7.25;1.90;;;;;;;;;;5067218;28;20038;-84
2023/10/14 06:36:03;;;;;;;6.93;1.70;;;;;;;;;;5049717;28;20032;-84
2023/10/14 06:38:29;;;;;;;6.18;1.40;;;;;;;;;;5050040;28;20119;-83
2023/10/14 06:41:01;;;;;;;7.20;1.25;;;;;;;;;;5052356;28;20426;-84
2023/10/14 06:43:27;;;;;;;8.15;1.90;;;;;;;;;;5047998;28;20033;-84
2023/10/14 06:45:56;;;;;;;5.35;1.25;;;;;;;;;;5064909;28;20021;-84
2023/10/14 06:48:22;;;;;;;6.80;1.35;;;;;;;;;;5064779;28;20021;-84
2023/10/14 06:50:47;;;;;;;10.07;1.90;;;;;;;;;;5065764;28;20028;-84
2023/10/14 06:53:15;;;;;;;4.57;1.08;;;;;;;;;;5047296;28;20166;-83
2023/10/14 06:55:41;;;;;;;9.18;1.55;;;;;;;;;;5065588;28;20029;-84
2023/10/14 06:58:08;;;;;;;10.13;1.80;;;;;;;;;;5066183;28;20036;-83
2023/10/14 07:00:37;;;;;;;9.88;1.50;;;;;;;;;;5066960;28;20087;-84
2023/10/14 07:03:06;;;;;;;10.50;1.58;;;;;;;;;;5066824;28;20028;-84
2023/10/14 07:05:32;;;;;;;9.60;1.60;;;;;;;;;;5050144;28;20024;-78
2023/10/14 07:07:58;;;;;;;7.95;1.58;;;;;;;;;;5065535;28;20127;-78
2023/10/14 07:10:27;;;;;;;8.75;1.58;;;;;;;;;;5067040;28;20466;-78
2023/10/14 07:13:00;;;;;;;8.10;1.52;;;;;;;;;;5067900;28;20036;-80
2023/10/14 07:15:27;;;;;;;6.32;1.33;;;;;;;;;;5061257;28;20029;-80
2023/10/14 07:17:54;;;;;;;8.95;1.50;;;;;;;;;;5047433;28;20071;-81
2023/10/14 07:20:19;;;;;;;12.65;1.75;;;;;;;;;;5064561;28;20111;-80
2023/10/14 07:22:45;;;;;;;7.45;1.50;;;;;;;;;;5070538;28;20100;-80
2023/10/14 07:25:10;;;;;;;10.50;1.60;;;;;;;;;;5050233;28;20066;-80
2023/10/14 07:27:37;;;;;;;6.97;1.80;;;;;;;;;;5049912;28;20116;-80
2023/10/14 07:30:13;;;;;;;10.27;1.55;;;;;;;;;;5070168;28;20032;-80
2023/10/14 07:32:43;;;;;;;7.80;1.42;;;;;;;;;;5063075;28;20020;-78
2023/10/14 07:35:13;;;;;;;10.82;1.80;;;;;;;;;;5052232;28;20469;-78
2023/10/14 07:37:44;;;;;;;13.27;2.03;;;;;;;;;;5070682;28;20062;-77
2023/10/14 07:40:22;;;;;;;13.02;1.60;;;;;;;;;;5070870;28;20032;-78
2023/10/14 07:42:52;;;;;;;10.63;2.08;;;;;;;;;;5069571;28;20025;-78
2023/10/14 07:45:22;;;;;;;10.45;1.55;;;;;;;;;;5070670;28;20027;-78
2023/10/14 07:47:48;;;;;;;14.77;1.63;;;;;;;;;;5052281;28;20485;-78
2023/10/14 07:50:13;;;;;;;9.77;1.70;;;;;;;;;;5047826;28;20468;-78
2023/10/14 07:52:39;;;;;;;10.90;1.40;;;;;;;;;;5071605;28;20087;-77
2023/10/14 07:55:05;;;;;;;11.32;2.17;;;;;;;;;;5050459;28;20033;-78
2023/10/14 07:57:31;;;;;;;11.45;1.60;;;;;;;;;;5075648;28;20087;-78
2023/10/14 08:00:09;;;;;;;10.48;1.63;;;;;;;;;;5067121;28;20384;-78
2023/10/14 08:02:35;;;;;;;9.18;1.63;;;;;;;;;;5048115;28;20533;-80
2023/10/14 08:05:00;;;;;;;10.73;1.60;;;;;;;;;;5064646;28;20028;-81
2023/10/14 08:07:27;;;;;;;10.65;1.50;;;;;;;;;;5069685;28;20016;-78
2023/10/14 08:09:52;;;;;;;9.55;1.83;;;;;;;;;;5047969;28;20029;-78
2023/10/14 08:12:18;;;;;;;8.30;1.48;;;;;;;;;;5046652;28;20021;-78
2023/10/14 08:14:44;;;;;;;6.75;1.38;;;;;;;;;;5044920;28;20040;-78
2023/10/14 08:17:11;;;;;;;9.05;1.40;;;;;;;;;;5044922;28;20480;-78
2023/10/14 08:19:38;;;;;;;11.73;1.70;;;;;;;;;;5047907;28;20110;-77
2023/10/14 08:22:05;;;;;;;9.88;1.67;;;;;;;;;;5053523;28;20067;-78
2023/10/14 08:24:30;;;;;;;7.45;2.42;;;;;;;;;;5057349;28;20082;-77
2023/10/14 08:26:56;;;;;;;7.47;1.40;;;;;;;;;;5045366;28;20033;-78
2023/10/14 08:29:21;;;;;;;9.43;1.67;;;;;;;;;;5069942;28;20032;-78
2023/10/14 08:31:51;;;;;;;9.52;1.80;;;;;;;;;;5071464;28;20404;-77
2023/10/14 08:34:19;;;;;;;7.35;1.52;;;;;;;;;;5049729;28;20528;-78
2023/10/14 08:36:44;;;;;;;8.20;1.48;;;;;;;;;;5046399;28;20045;-79
2023/10/14 08:39:10;;;;;;;8.48;1.90;;;;;;;;;;5061269;28;20067;-77
2023/10/14 08:41:37;;;;;;;9.80;1.60;;;;;;;;;;5068251;28;20013;-78
2023/10/14 08:44:08;;;;;;;11.02;1.90;;;;;;;;;;5078607;28;20085;-78
2023/10/14 08:46:39;;;;;;;13.57;1.88;;;;;;;;;;5050074;28;20077;-79
2023/10/14 08:49:07;;;;;;;10.82;1.60;;;;;;;;;;5063935;28;20078;-78
2023/10/14 08:51:33;;;;;;;7.07;1.27;;;;;;;;;;5053199;28;20085;-79
2023/10/14 08:54:00;;;;;;;7.90;1.45;;;;;;;;;;5032731;28;20101;-79
2023/10/14 08:56:26;;;;;;;10.15;1.50;;;;;;;;;;5042876;28;20029;-78
2023/10/14 08:58:52;;;;;;;13.38;1.58;;;;;;;;;;5042231;28;20389;-78
2023/10/14 09:01:19;;;;;;;8.05;1.38;;;;;;;;;;5056353;28;20025;-78
2023/10/14 09:03:46;;;;;;;9.80;1.98;;;;;;;;;;5064263;28;20480;-78
2023/10/14 09:06:12;;;;;;;12.10;1.95;;;;;;;;;;5061261;28;20527;-78
2023/10/14 09:08:40;;;;;;;10.23;1.35;;;;;;;;;;5042350;28;20024;-78
2023/10/14 09:11:05;;;;;;;9.15;1.65;;;;;;;;;;5041788;28;20045;-79
2023/10/14 09:13:33;;;;;;;10.05;1.48;;;;;;;;;;5065862;28;20036;-78
2023/10/14 09:15:59;;;;;;;7.68;1.33;;;;;;;;;;5057899;28;20484;-78
2023/10/14 09:18:32;;;;;;;7.45;1.70;;;;;;;;;;5039080;28;20029;-79
2023/10/14 09:21:00;;;;;;;12.63;1.73;;;;;;;;;;5059005;28;20032;-78
2023/10/14 09:23:27;;;;;;;9.20;1.30;;;;;;;;;;5043316;28;20542;-80
2023/10/14 09:25:55;;;;;;;12.18;1.60;;;;;;;;;;5055966;28;20028;-78
2023/10/14 09:28:24;;;;;;;11.52;1.40;;;;;;;;;;5038258;28;20032;-78
2023/10/14 09:30:51;;;;;;;9.20;1.67;;;;;;;;;;5044081;28;20116;-80
2023/10/14 09:33:29;;;;;;;9.48;1.20;;;;;;;;;;5035972;28;20028;-80
2023/10/14 09:36:02;;;;;;;11.20;1.30;;;;;;;;;;5040992;28;20028;-80
2023/10/14 09:38:27;;;;;;;7.72;1.40;;;;;;;;;;5014255;28;20028;-80
2023/10/14 09:41:02;;;;;;;8.82;2.13;;;;;;;;;;5052150;28;20043;-81
2023/10/14 09:43:29;;;;;;;7.20;1.17;;;;;;;;;;5052942;28;20067;-80
2023/10/14 09:45:56;;;;;;;7.95;1.45;;;;;;;;;;5039892;28;20426;-81
2023/10/14 09:48:29;;;;;;;8.60;1.60;;;;;;;;;;5052099;28;20024;-80
2023/10/14 09:51:02;;;;;;;10.57;1.65;;;;;;;;;;5034151;28;20105;-78
2023/10/14 09:53:35;;;;;;;6.93;1.08;;;;;;;;;;5045896;28;20120;-79
2023/10/14 09:56:05;;;;;;;8.90;1.30;;;;;;;;;;5036489;28;20027;-81
2023/10/14 09:58:34;;;;;;;7.55;1.33;;;;;;;;;;5036063;28;20492;-79
2023/10/14 10:01:04;;;;;;;10.05;1.50;;;;;;;;;;5057823;28;20104;-78
2023/10/14 10:03:38;;;;;;;11.45;1.42;;;;;;;;;;5030650;28;20028;-79
2023/10/14 10:06:16;;;;;;;11.68;1.63;;;;;;;;;;5035736;28;20510;-79
2023/10/14 10:09:10;;;;;;;8.00;1.50;;;;;;;;;;5051729;28;20549;-78
2023/10/14 10:11:37;;;;;;;9.27;1.48;;;;;;;;;;4996648;28;20044;-78
2023/10/14 10:14:12;;;;;;;7.50;1.55;;;;;;;;;;5056101;28;20028;-81
2023/10/14 10:16:40;;;;;;;6.95;0.90;;;;;;;;;;5033274;28;20420;-78
2023/10/14 10:19:08;;;;;;;6.82;1.20;;;;;;;;;;5056922;28;20033;-79
2023/10/14 10:21:38;;;;;;;4.97;0.95;;;;;;;;;;5038696;28;20578;-80
2023/10/14 10:24:09;;;;;;;6.78;1.10;;;;;;;;;;5041750;28;20060;-81
2023/10/14 10:27:03;;;;;;;8.18;1.20;;;;;;;;;;5031057;28;20616;-78
2023/10/14 10:29:30;;;;;;;5.20;1.05;;;;;;;;;;5047246;28;20044;-78
2023/10/14 10:32:07;;;;;;;8.55;1.55;;;;;;;;;;5037201;28;20032;-80
2023/10/14 10:34:33;;;;;;;8.20;1.60;;;;;;;;;;5035665;28;20457;-79
2023/10/14 10:37:02;;;;;;;9.10;2.42;;;;;;;;;;5035049;28;20120;-78
2023/10/14 10:39:28;;;;;;;9.30;1.55;;;;;;;;;;5057343;28;20032;-78
2023/10/14 10:41:54;;;;;;;6.47;1.35;;;;;;;;;;5035186;28;20044;-77
2023/10/14 10:44:19;;;;;;;8.98;1.52;;;;;;;;;;5033961;28;20038;-79
2023/10/14 10:46:50;;;;;;;7.30;1.08;;;;;;;;;;5055295;28;20028;-77
2023/10/14 10:49:51;;;;;;;9.02;1.40;;;;;;;;;;5033526;28;20261;-78
2023/10/14 10:52:17;;;;;;;10.52;1.33;;;;;;;;;;5030042;28;20032;-77
2023/10/14 10:54:44;;;;;;;9.00;1.45;;;;;;;;;;5052119;28;20079;-79
2023/10/14 10:57:14;;;;;;;8.93;1.65;;;;;;;;;;5014890;28;20032;-80
2023/10/14 10:59:40;;;;;;;8.52;1.23;;;;;;;;;;5047218;28;20108;-79
2023/10/14 11:02:10;;;;;;;8.77;1.10;;;;;;;;;;5036077;28;20025;-77
2023/10/14 11:04:36;;;;;;;6.65;1.10;;;;;;;;;;5032547;28;20025;-78
2023/10/14 11:07:03;;;;;;;6.43;1.42;;;;;;;;;;5031702;28;20055;-78
2023/10/14 11:09:34;;;;;;;14.27;1.30;;;;;;;;;;5031191;28;20033;-77
2023/10/14 11:12:03;;;;;;;7.60;1.33;;;;;;;;;;5037385;28;20028;-79
2023/10/14 11:14:29;;;;;;;6.28;1.08;;;;;;;;;;5039816;28;20025;-79
2023/10/14 11:16:58;;;;;;;6.13;1.20;;;;;;;;;;5048216;28;20060;-80
2023/10/14 11:19:30;;;;;;;5.32;0.98;;;;;;;;;;5052891;28;20028;-79
2023/10/14 11:21:58;;;;;;;6.75;1.55;;;;;;;;;;5054114;28;20385;-80
2023/10/14 11:24:24;;;;;;;6.78;1.33;;;;;;;;;;5054983;28;20055;-79
2023/10/14 11:26:50;;;;;;;8.40;1.50;;;;;;;;;;5054058;28;20024;-80
2023/10/14 11:29:15;;;;;;;5.60;1.00;;;;;;;;;;5048289;28;20040;-79
2023/10/14 11:31:44;;;;;;;10.18;1.38;;;;;;;;;;5035007;28;20024;-79
2023/10/14 11:34:13;;;;;;;6.95;1.10;;;;;;;;;;5051572;28;20500;-80
2023/10/14 11:36:42;;;;;;;6.80;1.00;;;;;;;;;;5037066;28;20060;-79
2023/10/14 11:39:12;;;;;;;7.63;1.02;;;;;;;;;;5021754;28;20032;-79
2023/10/14 11:41:38;;;;;;;7.15;1.20;;;;;;;;;;5060177;28;20128;-79
2023/10/14 11:44:04;;;;;;;6.00;1.05;;;;;;;;;;5029564;28;20548;-79
2023/10/14 11:46:29;;;;;;;6.82;0.98;;;;;;;;;;5054756;28;20499;-79
2023/10/14 11:48:55;;;;;;;6.63;1.30;;;;;;;;;;5026042;28;20059;-80
2023/10/14 11:51:20;;;;;;;5.95;0.95;;;;;;;;;;5047042;28;20029;-79
2023/10/14 11:53:50;;;;;;;8.15;1.20;;;;;;;;;;5033316;28;20432;-80
2023/10/14 11:56:16;;;;;;;6.55;1.00;;;;;;;;;;5053467;28;20107;-79
2023/10/14 11:58:42;;;;;;;8.75;1.50;;;;;;;;;;5031692;28;20032;-80
2023/10/14 12:01:11;;;;;;;5.75;0.90;;;;;;;;;;5047110;28;20044;-80
2023/10/14 12:03:37;;;;;;;6.03;1.20;;;;;;;;;;5056325;28;20032;-79
2023/10/14 12:06:04;;;;;;;7.53;1.27;;;;;;;;;;5057987;28;20040;-79
2023/10/14 12:08:39;;;;;;;7.63;1.20;;;;;;;;;;5033561;28;20381;-79
2023/10/14 12:11:08;;;;;;;4.32;0.82;;;;;;;;;;5022641;28;20267;-79
2023/10/14 12:13:33;;;;;;;5.35;1.05;;;;;;;;;;5029811;28;20473;-80
2023/10/14 12:15:59;;;;;;;5.82;1.15;;;;;;;;;;5038953;28;20089;-79
2023/10/14 12:18:24;;;;;;;5.97;1.33;;;;;;;;;;5025968;28;21473;-79
2023/10/14 12:20:50;;;;;;;6.50;1.02;;;;;;;;;;5057102;28;20131;-83
2023/10/14 12:23:19;;;;;;;5.13;1.10;;;;;;;;;;5049363;28;20060;-80
2023/10/14 12:25:46;;;;;;;6.13;1.00;;;;;;;;;;5048810;28;20056;-83
2023/10/14 12:28:17;;;;;;;5.53;0.80;;;;;;;;;;5050110;28;20273;-82
2023/10/14 12:30:43;;;;;;;9.80;1.00;;;;;;;;;;5053925;28;20103;-82
2023/10/14 12:33:18;;;;;;;10.20;1.50;;;;;;;;;;5057799;28;20035;-83
2023/10/14 12:35:45;;;;;;;8.98;1.30;;;;;;;;;;5053199;28;20504;-83
2023/10/14 12:38:15;;;;;;;5.95;1.00;;;;;;;;;;5029207;28;20024;-84
2023/10/14 12:40:43;;;;;;;5.15;0.90;;;;;;;;;;5057554;28;20032;-83
2023/10/14 12:43:12;;;;;;;8.52;1.20;;;;;;;;;;5044169;28;20036;-82
2023/10/14 12:45:38;;;;;;;7.60;1.20;;;;;;;;;;5062251;28;20451;-81
2023/10/14 12:48:10;;;;;;;7.18;1.10;;;;;;;;;;5037880;28;20488;-82
2023/10/14 12:50:46;;;;;;;5.88;1.05;;;;;;;;;;5038789;28;20020;-83
2023/10/14 12:53:12;;;;;;;6.55;0.98;;;;;;;;;;5037268;28;20904;-84
2023/10/14 12:55:42;;;;;;;7.10;1.10;;;;;;;;;;5036467;28;20527;-82
2023/10/14 12:58:08;;;;;;;7.63;1.27;;;;;;;;;;5052749;28;20554;-82
2023/10/14 13:00:35;;;;;;;8.35;0.75;;;;;;;;;;5031666;28;20033;-82
2023/10/14 13:03:01;;;;;;;3.47;0.68;;;;;;;;;;5013829;28;20032;-82
2023/10/14 13:05:28;;;;;;;5.40;1.20;;;;;;;;;;5034007;28;20419;-83
2023/10/14 13:07:55;;;;;;;7.45;1.00;;;;;;;;;;5027808;28;20555;-84
2023/10/14 13:10:25;;;;;;;5.82;1.13;;;;;;;;;;5055625;28;20032;-83
2023/10/14 13:12:56;;;;;;;7.75;0.95;;;;;;;;;;5039807;28;20032;-83
2023/10/14 13:15:29;;;;;;;6.35;1.45;;;;;;;;;;5061832;28;20452;-83
2023/10/14 13:18:00;;;;;;;7.88;1.15;;;;;;;;;;5032659;28;20048;-82
2023/10/14 13:20:27;;;;;;;7.10;0.93;;;;;;;;;;5044421;28;20028;-80
2023/10/14 13:23:12;;;;;;;7.07;1.15;;;;;;;;;;5055995;28;20426;-83
2023/10/14 13:25:38;;;;;;;5.80;1.00;;;;;;;;;;5037750;28;20044;-82
2023/10/14 13:28:08;;;;;;;8.90;1.33;;;;;;;;;;5031680;28;20512;-79
2023/10/14 13:30:46;;;;;;;6.20;1.13;;;;;;;;;;5030822;28;20543;-78
2023/10/14 13:33:16;;;;;;;4.35;0.80;;;;;;;;;;5052257;28;20029;-77
2023/10/14 13:35:43;;;;;;;5.43;0.88;;;;;;;;;;5028939;28;20525;-79
2023/10/14 13:38:10;;;;;;;5.90;0.80;;;;;;;;;;5051706;28;20028;-78
2023/10/14 13:40:38;;;;;;;4.28;1.00;;;;;;;;;;5052733;28;20016;-79
2023/10/14 13:43:04;;;;;;;6.72;0.98;;;;;;;;;;5049116;28;20030;-78
2023/10/14 13:45:30;;;;;;;7.05;0.90;;;;;;;;;;5033625;28;20126;-79
2023/10/14 13:47:56;;;;;;;3.65;0.80;;;;;;;;;;5058135;28;20025;-79
2023/10/14 13:50:21;;;;;;;7.13;0.95;;;;;;;;;;5050237;28;20028;-79
2023/10/14 13:52:51;;;;;;;3.88;0.93;;;;;;;;;;5059584;28;20799;-79
2023/10/14 13:55:20;;;;;;;5.35;0.90;;;;;;;;;;5049879;28;20039;-79
2023/10/14 13:57:49;;;;;;;5.78;1.27;;;;;;;;;;5060029;28;20447;-78
2023/10/14 14:00:19;;;;;;;5.03;1.10;;;;;;;;;;5045714;28;20028;-78
2023/10/14 14:02:46;;;;;;;4.47;0.98;;;;;;;;;;5028946;28;20033;-79
2023/10/14 14:05:12;;;;;;;5.30;0.65;;;;;;;;;;5035200;28;20035;-78
2023/10/14 14:07:39;;;;;;;3.42;0.80;;;;;;;;;;5059482;28;20032;-79
2023/10/14 14:10:05;;;;;;;10.30;1.58;;;;;;;;;;5049849;28;20052;-79
2023/10/14 14:12:32;;;;;;;5.63;1.20;;;;;;;;;;5036858;28;20056;-79
2023/10/14 14:14:57;;;;;;;6.03;1.02;;;;;;;;;;5035389;28;20482;-78
2023/10/14 14:17:25;;;;;;;6.03;0.90;;;;;;;;;;5049880;28;20764;-79
2023/10/14 14:19:51;;;;;;;6.43;0.75;;;;;;;;;;5038469;28;20042;-78
2023/10/14 14:22:18;;;;;;;7.70;1.10;;;;;;;;;;5049458;28;20024;-79
2023/10/14 14:24:43;;;;;;;5.32;1.20;;;;;;;;;;5038457;28;20052;-79
2023/10/14 14:27:08;;;;;;;6.68;1.23;;;;;;;;;;5044168;28;20159;-79
2023/10/14 14:29:34;;;;;;;5.00;1.00;;;;;;;;;;5036484;28;20025;-78
2023/10/14 14:31:59;;;;;;;6.38;1.30;;;;;;;;;;5031009;28;20029;-78
2023/10/14 14:34:29;;;;;;;6.57;1.63;;;;;;;;;;5046565;28;20388;-79
2023/10/14 14:36:54;;;;;;;3.67;1.00;;;;;;;;;;5039082;28;20032;-79
2023/10/14 14:39:20;;;;;;;3.70;0.85;;;;;;;;;;5039131;28;20613;-79
2023/10/14 14:41:45;;;;;;;5.45;0.75;;;;;;;;;;5028780;28;20020;-79
2023/10/14 14:44:13;;;;;;;3.95;0.80;;;;;;;;;;5032133;28;20056;-79
2023/10/14 14:46:39;;;;;;;7.10;1.02;;;;;;;;;;5053982;28;20035;-79
2023/10/14 14:49:04;;;;;;;6.32;0.77;;;;;;;;;;5045377;28;20032;-79
2023/10/14 14:51:29;;;;;;;3.53;0.82;;;;;;;;;;5051109;28;20032;-79
2023/10/14 14:53:55;;;;;;;6.28;0.93;;;;;;;;;;5051285;28;20060;-79
2023/10/14 14:56:20;;;;;;;7.38;1.17;;;;;;;;;;5026214;28;20024;-78
2023/10/14 14:58:46;;;;;;;7.90;1.20;;;;;;;;;;5053307;28;20041;-78
2023/10/14 15:01:19;;;;;;;6.63;1.15;;;;;;;;;;5037450;28;20028;-79
2023/10/14 15:03:45;;;;;;;7.80;1.98;;;;;;;;;;5051981;28;20035;-79
2023/10/14 15:06:11;;;;;;;7.28;1.13;;;;;;;;;;5052441;28;20028;-78
2023/10/14 15:08:36;;;;;;;6.30;1.15;;;;;;;;;;5041423;28;20027;-78
2023/10/14 15:11:01;;;;;;;7.55;0.95;;;;;;;;;;5052738;28;20040;-78
2023/10/14 15:13:27;;;;;;;5.88;1.00;;;;;;;;;;5059229;28;20024;-78
2023/10/14 15:15:52;;;;;;;6.88;0.98;;;;;;;;;;5050929;28;20068;-79
2023/10/14 15:18:19;;;;;;;4.90;1.10;;;;;;;;;;5039423;28;20024;-79
2023/10/14 15:20:45;;;;;;;4.22;0.60;;;;;;;;;;5066525;28;20060;-79
2023/10/14 15:23:14;;;;;;;5.68;0.82;;;;;;;;;;5062849;28;20575;-78
2023/10/14 15:25:40;;;;;;;7.22;0.82;;;;;;;;;;5029702;28;20020;-79